createdAt,value
2022-10-26T00:01:06.558Z,14.40
2022-10-26T00:03:34.327Z,14.50
2022-10-26T00:06:12.261Z,16.17
2022-10-26T00:08:38.834Z,15.57
2022-10-26T00:11:06.383Z,16.47
2022-10-26T00:13:33.683Z,14.73
2022-10-26T00:18:31.806Z,14.40
2022-10-26T00:21:04.226Z,14.10
2022-10-26T00:23:31.554Z,14.63
2022-10-26T00:25:58.489Z,16.93
2022-10-26T00:28:25.319Z,14.57
2022-10-26T00:30:52.008Z,13.57
2022-10-26T00:33:18.512Z,18.57
2022-10-26T00:35:49.231Z,15.50
2022-10-26T00:38:15.767Z,13.97
2022-10-26T00:40:42.424Z,14.07
2022-10-26T00:43:17.420Z,18.60
2022-10-26T00:45:45.081Z,18.30
2022-10-26T00:48:38.827Z,15.90
2022-10-26T00:51:40.246Z,17.57
2022-10-26T00:54:11.934Z,19.50
2022-10-26T00:56:39.755Z,19.83
2022-10-26T00:59:09.915Z,16.27
2022-10-26T01:01:39.998Z,16.33
2022-10-26T01:04:06.963Z,16.20
2022-10-26T01:06:36.639Z,14.63
2022-10-26T01:09:04.348Z,16.20
2022-10-26T01:11:30.958Z,17.80
2022-10-26T01:13:59.734Z,13.83
2022-10-26T01:16:51.615Z,16.53
2022-10-26T01:19:23.888Z,15.10
2022-10-26T01:22:02.287Z,14.90
2022-10-26T01:24:39.195Z,17.13
2022-10-26T01:27:25.209Z,14.10
2022-10-26T01:30:16.255Z,11.17
2022-10-26T01:32:48.493Z,10.93
2022-10-26T01:35:29.230Z,14.17
2022-10-26T01:38:27.290Z,13.50
2022-10-26T01:41:12.025Z,13.80
2022-10-26T01:43:42.696Z,11.77
2022-10-26T01:46:11.584Z,12.43
2022-10-26T01:48:41.252Z,12.10
2022-10-26T01:51:11.327Z,13.40
2022-10-26T01:53:44.822Z,12.30
2022-10-26T01:56:19.314Z,13.10
2022-10-26T01:59:07.395Z,11.57
2022-10-26T02:02:00.442Z,13.57
2022-10-26T02:04:48.371Z,13.00
2022-10-26T02:07:27.343Z,12.67
2022-10-26T02:10:08.813Z,16.67
2022-10-26T02:12:56.363Z,14.87
2022-10-26T02:15:40.615Z,15.07
2022-10-26T02:18:33.187Z,16.70
2022-10-26T02:21:08.754Z,16.97
2022-10-26T02:23:38.893Z,15.33
2022-10-26T02:26:08.866Z,16.57
2022-10-26T02:28:42.896Z,16.77
2022-10-26T02:31:12.355Z,13.90
2022-10-26T02:33:41.793Z,15.47
2022-10-26T02:36:11.628Z,16.30
2022-10-26T02:38:41.051Z,14.27
2022-10-26T02:41:08.771Z,11.93
2022-10-26T02:43:41.722Z,13.23
2022-10-26T02:46:15.335Z,12.43
2022-10-26T02:48:41.916Z,16.37
2022-10-26T02:51:29.504Z,12.73
2022-10-26T02:54:06.105Z,15.30
2022-10-26T02:56:51.617Z,16.33
2022-10-26T02:59:19.960Z,19.03
2022-10-26T03:01:47.409Z,13.70
2022-10-26T03:04:14.192Z,15.93
2022-10-26T03:06:40.766Z,17.60
2022-10-26T03:09:07.250Z,20.13
2022-10-26T03:11:33.759Z,20.57
2022-10-26T03:14:00.267Z,19.97
2022-10-26T03:16:27.064Z,18.03
2022-10-26T03:18:53.533Z,14.67
2022-10-26T03:21:20.060Z,19.17
2022-10-26T03:23:47.910Z,18.00
2022-10-26T03:26:14.471Z,20.60
2022-10-26T03:28:40.927Z,21.13
2022-10-26T03:31:07.658Z,21.13
2022-10-26T03:33:34.153Z,18.00
2022-10-26T03:36:00.929Z,18.13
2022-10-26T03:38:27.418Z,18.33
2022-10-26T03:40:53.966Z,21.77
2022-10-26T03:43:20.487Z,21.50
2022-10-26T03:45:47.060Z,18.27
2022-10-26T03:48:13.955Z,22.47
2022-10-26T03:50:40.537Z,22.03
2022-10-26T03:53:07.301Z,20.60
2022-10-26T03:55:33.841Z,18.97
2022-10-26T03:58:00.326Z,19.03
2022-10-26T04:00:26.841Z,20.50
2022-10-26T04:02:56.308Z,18.73
2022-10-26T04:05:23.878Z,20.00
2022-10-26T04:07:58.732Z,17.43
2022-10-26T04:10:26.844Z,15.97
2022-10-26T04:12:54.544Z,20.53
2022-10-26T04:15:21.942Z,17.97
2022-10-26T04:17:48.898Z,17.83
2022-10-26T04:20:15.815Z,17.67
2022-10-26T04:22:42.337Z,18.43
2022-10-26T04:25:10.502Z,16.90
2022-10-26T04:27:36.993Z,16.20
2022-10-26T04:30:06.045Z,15.03
2022-10-26T04:32:32.648Z,18.47
2022-10-26T04:34:59.135Z,18.63
2022-10-26T04:37:25.688Z,18.17
2022-10-26T04:39:52.236Z,17.07
2022-10-26T04:42:18.822Z,14.43
2022-10-26T04:44:45.306Z,18.03
2022-10-26T04:47:11.807Z,14.10
2022-10-26T04:49:38.323Z,19.30
2022-10-26T04:52:06.044Z,17.43
2022-10-26T04:54:32.519Z,17.20
2022-10-26T04:56:59.016Z,16.90
2022-10-26T04:59:25.522Z,15.60
2022-10-26T05:01:52.142Z,15.07
2022-10-26T05:04:18.709Z,18.50
2022-10-26T05:06:45.262Z,16.90
2022-10-26T05:09:11.779Z,14.90
2022-10-26T05:11:38.287Z,17.17
2022-10-26T05:14:04.934Z,16.67
2022-10-26T05:16:31.431Z,16.70
2022-10-26T05:18:57.904Z,14.27
2022-10-26T05:21:24.395Z,15.47
2022-10-26T05:23:55.630Z,13.93
2022-10-26T05:26:23.863Z,16.27
2022-10-26T05:28:51.663Z,14.93
2022-10-26T05:31:18.189Z,15.27
2022-10-26T05:33:44.694Z,14.73
2022-10-26T05:36:11.208Z,15.83
2022-10-26T05:38:37.693Z,13.87
2022-10-26T05:41:04.380Z,13.97
2022-10-26T05:43:30.930Z,13.97
2022-10-26T05:45:57.516Z,16.50
2022-10-26T05:48:24.030Z,15.87
2022-10-26T05:50:50.567Z,13.80
2022-10-26T05:53:17.145Z,16.13
2022-10-26T05:55:44.036Z,15.10
2022-10-26T05:58:15.332Z,13.07
2022-10-26T06:00:54.926Z,14.90
2022-10-26T06:06:00.731Z,12.07
2022-10-26T06:08:29.881Z,11.47
2022-10-26T06:10:59.499Z,15.10
2022-10-26T06:13:26.437Z,10.97
2022-10-26T06:16:08.005Z,13.17
2022-10-26T06:18:49.732Z,10.27
2022-10-26T06:21:37.795Z,8.37
2022-10-26T06:24:10.134Z,8.80
2022-10-26T06:26:42.862Z,8.33
2022-10-26T06:29:44.862Z,9.67
2022-10-26T06:32:12.024Z,7.90
2022-10-26T06:34:45.301Z,8.80
2022-10-26T06:37:13.147Z,8.43
2022-10-26T06:39:44.538Z,10.17
2022-10-26T06:42:11.954Z,8.67
2022-10-26T06:44:38.760Z,11.70
2022-10-26T06:47:49.926Z,7.90
2022-10-26T06:50:43.206Z,11.77
2022-10-26T06:53:28.375Z,12.90
2022-10-26T06:55:57.537Z,11.27
2022-10-26T06:58:29.182Z,14.00
2022-10-26T07:00:57.143Z,12.47
2022-10-26T07:03:23.753Z,13.43
2022-10-26T07:05:50.484Z,14.73
2022-10-26T07:08:17.136Z,13.20
2022-10-26T07:10:43.746Z,15.27
2022-10-26T07:13:10.928Z,14.93
2022-10-26T07:15:39.118Z,13.33
2022-10-26T07:18:07.316Z,16.00
2022-10-26T07:20:41.579Z,13.57
2022-10-26T07:23:12.320Z,20.70
2022-10-26T07:25:40.548Z,18.47
2022-10-26T07:28:10.377Z,19.43
2022-10-26T07:30:38.623Z,18.23
2022-10-26T07:33:11.629Z,20.83
2022-10-26T07:35:38.202Z,18.73
2022-10-26T07:38:05.166Z,23.67
2022-10-26T07:40:32.410Z,24.10
2022-10-26T07:43:00.663Z,21.90
2022-10-26T07:45:29.304Z,25.33
2022-10-26T07:47:56.530Z,23.27
2022-10-26T07:50:24.180Z,22.27
2022-10-26T07:52:51.157Z,21.40
2022-10-26T07:55:18.023Z,25.47
2022-10-26T07:57:44.814Z,21.57
2022-10-26T08:00:12.245Z,23.33
2022-10-26T08:02:38.764Z,25.90
2022-10-26T08:05:05.895Z,26.97
2022-10-26T08:07:32.410Z,24.93
2022-10-26T08:09:58.947Z,20.77
2022-10-26T08:12:25.485Z,23.17
2022-10-26T08:14:51.978Z,21.77
2022-10-26T08:17:18.484Z,22.07
2022-10-26T08:19:47.661Z,19.90
2022-10-26T08:24:46.910Z,23.10
2022-10-26T08:27:14.966Z,22.23
2022-10-26T08:29:42.288Z,22.40
2022-10-26T08:32:08.982Z,25.60
2022-10-26T08:34:35.506Z,20.77
2022-10-26T08:37:02.071Z,24.60
2022-10-26T08:39:30.694Z,19.77
2022-10-26T08:42:19.515Z,23.60
2022-10-26T08:44:58.336Z,18.27
2022-10-26T08:47:34.305Z,18.10
2022-10-26T08:50:03.778Z,22.43
2022-10-26T08:52:40.280Z,19.07
2022-10-26T08:55:15.541Z,17.17
2022-10-26T08:57:42.891Z,22.67
2022-10-26T09:00:15.208Z,18.70
2022-10-26T09:02:41.671Z,14.43
2022-10-26T09:05:34.783Z,16.67
2022-10-26T09:08:26.586Z,17.83
2022-10-26T09:11:15.437Z,15.13
2022-10-26T09:14:14.369Z,10.67
2022-10-26T09:17:08.554Z,13.23
2022-10-26T09:20:06.500Z,11.67
2022-10-26T09:22:38.849Z,10.10
2022-10-26T09:25:23.425Z,15.70
2022-10-26T09:28:02.262Z,11.70
2022-10-26T09:30:30.381Z,17.80
2022-10-26T09:33:00.501Z,15.50
2022-10-26T09:35:42.466Z,13.77
2022-10-26T09:38:24.369Z,8.00
2022-10-26T09:41:10.662Z,12.80
2022-10-26T09:43:58.248Z,7.70
2022-10-26T09:46:59.974Z,8.47
2022-10-26T09:49:53.464Z,8.60
2022-10-26T09:52:19.990Z,7.63
2022-10-26T09:54:46.540Z,11.40
2022-10-26T09:57:16.330Z,9.53
2022-10-26T09:59:43.311Z,7.63
2022-10-26T10:02:44.950Z,9.23
2022-10-26T10:05:53.263Z,7.00
2022-10-26T10:08:23.993Z,7.03
2022-10-26T10:11:07.408Z,6.97
2022-10-26T10:13:36.962Z,5.83
2022-10-26T10:16:23.353Z,6.40
2022-10-26T10:18:55.928Z,9.33
2022-10-26T10:21:45.191Z,7.50
2022-10-26T10:24:32.097Z,6.03
2022-10-26T10:27:18.431Z,4.67
2022-10-26T10:29:50.768Z,7.87
2022-10-26T10:32:20.745Z,5.07
2022-10-26T10:34:52.294Z,5.53
2022-10-26T10:37:24.919Z,6.67
2022-10-26T10:39:56.084Z,6.33
2022-10-26T10:42:27.762Z,6.93
2022-10-26T10:44:55.871Z,6.30
2022-10-26T10:50:20.102Z,6.80
2022-10-26T10:52:47.458Z,7.70
2022-10-26T10:55:14.165Z,6.10
2022-10-26T10:58:16.691Z,5.23
2022-10-26T11:00:48.328Z,5.37
2022-10-26T11:03:36.390Z,5.77
2022-10-26T11:06:22.578Z,5.70
2022-10-26T11:09:02.266Z,5.83
2022-10-26T11:11:47.461Z,6.80
2022-10-26T11:14:27.928Z,7.83
2022-10-26T11:17:06.514Z,5.67
2022-10-26T11:19:42.141Z,4.60
2022-10-26T11:22:14.389Z,4.73
2022-10-26T11:25:03.196Z,3.60
2022-10-26T11:27:34.223Z,4.60
2022-10-26T11:30:13.786Z,5.10
2022-10-26T11:32:54.872Z,5.10
2022-10-26T11:35:32.670Z,5.33
2022-10-26T11:38:10.289Z,6.10
2022-10-26T11:40:53.743Z,3.73
2022-10-26T11:43:41.481Z,4.70
2022-10-26T11:46:07.962Z,4.20
2022-10-26T11:48:43.384Z,6.67
2022-10-26T11:51:32.556Z,3.77
2022-10-26T11:54:04.821Z,4.20
2022-10-26T11:56:36.745Z,4.60
2022-10-26T11:59:03.500Z,6.23
2022-10-26T12:01:30.961Z,6.50
2022-10-26T12:03:59.860Z,5.33
2022-10-26T12:06:32.071Z,4.73
2022-10-26T12:09:20.656Z,5.00
2022-10-26T12:12:12.790Z,4.77
2022-10-26T12:15:00.708Z,6.23
2022-10-26T12:17:38.900Z,7.57
2022-10-26T12:20:24.310Z,6.23
2022-10-26T12:22:51.307Z,2.83
2022-10-26T12:25:21.073Z,5.67
2022-10-26T12:30:18.877Z,5.67
2022-10-26T12:32:45.392Z,3.50
2022-10-26T12:35:37.894Z,7.33
2022-10-26T12:38:40.030Z,4.13
2022-10-26T12:41:06.612Z,5.50
2022-10-26T12:43:36.020Z,7.30
2022-10-26T12:46:14.485Z,3.93
2022-10-26T12:48:44.600Z,5.33
2022-10-26T12:51:24.653Z,3.60
2022-10-26T12:54:02.927Z,4.83
2022-10-26T12:56:50.750Z,2.50
2022-10-26T12:59:38.853Z,2.60
2022-10-26T13:02:43.089Z,2.13
2022-10-26T13:05:48.158Z,6.20
2022-10-26T13:08:15.336Z,3.70
2022-10-26T13:11:01.849Z,3.23
2022-10-26T13:13:31.333Z,5.43
2022-10-26T13:15:59.721Z,4.57
2022-10-26T13:18:26.778Z,5.77
2022-10-26T13:21:09.897Z,4.90
2022-10-26T13:23:40.136Z,4.07
2022-10-26T13:26:21.586Z,5.30
2022-10-26T13:28:52.717Z,4.93
2022-10-26T13:31:41.652Z,5.67
2022-10-26T13:34:17.797Z,3.33
2022-10-26T13:36:53.233Z,1.87
2022-10-26T13:39:24.286Z,3.47
2022-10-26T13:41:53.800Z,3.37
2022-10-26T13:44:28.361Z,3.53
2022-10-26T13:47:01.305Z,4.70
2022-10-26T13:49:39.234Z,2.03
2022-10-26T13:52:12.404Z,4.37
2022-10-26T13:54:55.244Z,3.67
2022-10-26T13:57:32.747Z,4.77
2022-10-26T14:00:03.990Z,2.33
2022-10-26T14:02:31.025Z,5.53
2022-10-26T14:05:02.789Z,3.43
2022-10-26T14:10:35.652Z,4.07
2022-10-26T14:13:07.650Z,5.03
2022-10-26T14:15:35.952Z,6.50
2022-10-26T14:18:04.369Z,3.80
2022-10-26T14:20:32.206Z,8.33
2022-10-26T14:22:58.781Z,4.83
2022-10-26T14:25:42.142Z,5.47
2022-10-26T14:28:27.825Z,5.37
2022-10-26T14:30:54.415Z,3.80
2022-10-26T14:33:27.518Z,3.30
2022-10-26T14:35:54.896Z,3.13
2022-10-26T14:38:35.638Z,4.63
2022-10-26T14:41:02.466Z,4.20
2022-10-26T14:43:29.134Z,3.43
2022-10-26T14:45:57.333Z,3.73
2022-10-26T14:48:25.607Z,4.13
2022-10-26T14:51:19.664Z,3.20
2022-10-26T14:53:51.891Z,4.30
2022-10-26T14:56:23.379Z,3.13
2022-10-26T14:58:51.157Z,1.67
2022-10-26T15:01:23.859Z,1.77
2022-10-26T15:03:55.400Z,2.93
2022-10-26T15:06:34.908Z,5.47
2022-10-26T15:09:05.149Z,2.10
2022-10-26T15:11:33.774Z,6.63
2022-10-26T15:14:01.321Z,4.80
2022-10-26T15:16:34.183Z,4.83
2022-10-26T15:19:15.622Z,3.20
2022-10-26T15:21:47.453Z,5.90
2022-10-26T15:24:39.365Z,4.50
2022-10-26T15:27:16.018Z,6.43
2022-10-26T15:29:45.630Z,3.73
2022-10-26T15:32:19.771Z,3.80
2022-10-26T15:35:20.275Z,3.47
2022-10-26T15:37:47.943Z,3.20
2022-10-26T15:40:14.947Z,6.13
2022-10-26T15:42:45.298Z,3.67
2022-10-26T15:45:30.300Z,6.40
2022-10-26T15:47:58.156Z,6.40
2022-10-26T15:50:27.479Z,5.07
2022-10-26T15:53:02.955Z,4.07
2022-10-26T15:55:30.943Z,1.77
2022-10-26T15:57:57.491Z,4.43
2022-10-26T16:00:24.033Z,5.73
2022-10-26T16:02:50.644Z,3.63
2022-10-26T16:05:17.486Z,4.80
2022-10-26T16:07:47.060Z,4.47
2022-10-26T16:10:22.427Z,4.17
2022-10-26T16:12:50.428Z,6.47
2022-10-26T16:15:36.693Z,2.63
2022-10-26T16:18:03.268Z,6.23
2022-10-26T16:20:30.076Z,4.77
2022-10-26T16:22:57.053Z,4.47
2022-10-26T16:25:25.443Z,4.07
2022-10-26T16:27:54.259Z,2.57
2022-10-26T16:30:24.699Z,3.20
2022-10-26T16:32:53.749Z,5.70
2022-10-26T16:35:20.372Z,3.77
2022-10-26T16:37:46.895Z,3.63
2022-10-26T16:40:13.807Z,6.17
2022-10-26T16:42:44.743Z,6.00
2022-10-26T16:45:15.286Z,5.13
2022-10-26T16:47:41.987Z,5.63
2022-10-26T16:50:10.879Z,3.67
2022-10-26T16:52:38.366Z,3.30
2022-10-26T16:55:06.276Z,6.97
2022-10-26T16:57:33.293Z,2.90
2022-10-26T16:59:59.764Z,4.87
2022-10-26T17:02:26.347Z,6.00
2022-10-26T17:04:52.915Z,2.87
2022-10-26T17:07:19.435Z,4.07
2022-10-26T17:09:45.918Z,4.60
2022-10-26T17:12:12.466Z,7.77
2022-10-26T17:14:38.969Z,3.57
2022-10-26T17:17:05.453Z,4.10
2022-10-26T17:19:31.977Z,6.07
2022-10-26T17:21:58.493Z,4.70
2022-10-26T17:24:25.225Z,5.27
2022-10-26T17:26:52.026Z,5.20
2022-10-26T17:29:18.689Z,5.73
2022-10-26T17:31:45.241Z,4.70
2022-10-26T17:34:11.761Z,5.43
2022-10-26T17:36:38.364Z,5.70
2022-10-26T17:39:05.104Z,4.63
2022-10-26T17:41:31.588Z,7.63
2022-10-26T17:43:58.334Z,5.73
2022-10-26T17:46:26.858Z,3.40
2022-10-26T17:48:58.025Z,9.53
2022-10-26T17:51:26.153Z,5.83
2022-10-26T17:53:53.400Z,4.43
2022-10-26T17:56:22.396Z,7.07
2022-10-26T17:59:00.187Z,6.23
2022-10-26T18:01:28.229Z,10.73
2022-10-26T18:03:55.622Z,5.17
2022-10-26T18:06:22.283Z,4.83
2022-10-26T18:08:48.897Z,5.50
2022-10-26T18:11:26.107Z,9.77
2022-10-26T18:13:54.167Z,4.47
2022-10-26T18:16:24.483Z,3.87
2022-10-26T18:19:04.865Z,5.77
2022-10-26T18:21:37.730Z,6.10
2022-10-26T18:24:05.247Z,5.03
2022-10-26T18:26:32.174Z,6.03
2022-10-26T18:29:00.402Z,6.47
2022-10-26T18:31:28.695Z,7.30
2022-10-26T18:33:57.076Z,8.03
2022-10-26T18:36:24.204Z,5.63
2022-10-26T18:38:51.172Z,6.67
2022-10-26T18:41:19.649Z,7.40
2022-10-26T18:43:51.011Z,6.83
2022-10-26T18:46:23.384Z,7.07
2022-10-26T18:48:51.436Z,6.83
2022-10-26T18:51:21.367Z,5.90
2022-10-26T18:53:48.624Z,4.93
2022-10-26T18:56:20.279Z,7.43
2022-10-26T18:58:49.336Z,5.37
2022-10-26T19:01:21.511Z,6.87
2022-10-26T19:03:52.993Z,4.07
2022-10-26T19:06:22.821Z,6.93
2022-10-26T19:08:49.303Z,8.27
2022-10-26T19:11:18.037Z,5.17
2022-10-26T19:13:45.107Z,5.17
2022-10-26T19:16:33.499Z,7.47
2022-10-26T19:19:10.654Z,7.30
2022-10-26T19:21:37.332Z,4.53
2022-10-26T19:24:04.109Z,6.17
2022-10-26T19:26:37.805Z,5.87
2022-10-26T19:29:07.285Z,6.93
2022-10-26T19:31:35.965Z,4.53
2022-10-26T19:34:03.491Z,7.80
2022-10-26T19:36:30.775Z,5.73
2022-10-26T19:38:57.733Z,8.47
2022-10-26T19:41:26.693Z,10.27
2022-10-26T19:43:54.585Z,5.73
2022-10-26T19:46:24.209Z,6.30
2022-10-26T19:49:01.445Z,5.77
2022-10-26T19:51:30.087Z,7.10
2022-10-26T19:54:02.213Z,5.90
2022-10-26T19:56:30.511Z,7.23
2022-10-26T19:58:57.170Z,6.63
2022-10-26T20:01:23.817Z,5.50
2022-10-26T20:03:50.456Z,5.47
2022-10-26T20:06:18.381Z,8.73
2022-10-26T20:08:47.181Z,7.80
2022-10-26T20:11:16.211Z,7.60
2022-10-26T20:13:44.409Z,5.50
2022-10-26T20:16:12.168Z,5.37
2022-10-26T20:18:43.937Z,8.23
2022-10-26T20:21:14.934Z,7.53
2022-10-26T20:23:42.654Z,5.63
2022-10-26T20:26:10.962Z,5.40
2022-10-26T20:28:39.228Z,5.60
2022-10-26T20:31:05.871Z,5.00
2022-10-26T20:33:32.419Z,6.53
2022-10-26T20:35:59.425Z,6.60
2022-10-26T20:38:26.887Z,8.10
2022-10-26T20:40:58.614Z,6.10
2022-10-26T20:43:28.309Z,6.47
2022-10-26T20:45:56.196Z,8.30
2022-10-26T20:48:23.299Z,7.50
2022-10-26T20:51:07.861Z,7.27
2022-10-26T20:53:49.179Z,8.57
2022-10-26T20:56:22.586Z,5.90
2022-10-26T20:59:00.935Z,8.50
2022-10-26T21:01:29.922Z,5.47
2022-10-26T21:03:58.249Z,5.73
2022-10-26T21:06:26.189Z,8.87
2022-10-26T21:08:54.977Z,7.93
2022-10-26T21:11:23.667Z,5.97
2022-10-26T21:13:52.373Z,7.90
2022-10-26T21:16:19.082Z,6.77
2022-10-26T21:18:45.861Z,7.43
2022-10-26T21:21:12.833Z,5.33
2022-10-26T21:23:41.153Z,6.67
2022-10-26T21:26:08.886Z,7.67
2022-10-26T21:28:47.016Z,8.07
2022-10-26T21:31:16.415Z,6.43
2022-10-26T21:33:43.620Z,8.10
2022-10-26T21:36:12.513Z,9.20
2022-10-26T21:38:40.698Z,8.30
2022-10-26T21:41:10.002Z,6.50
2022-10-26T21:43:39.689Z,9.13
2022-10-26T21:46:07.704Z,7.10
2022-10-26T21:48:34.453Z,10.77
2022-10-26T21:51:02.498Z,8.63
2022-10-26T21:53:29.788Z,9.13
2022-10-26T21:56:03.416Z,11.30
2022-10-26T21:58:30.614Z,11.83
2022-10-26T22:01:10.374Z,10.20
2022-10-26T22:03:37.769Z,7.80
2022-10-26T22:06:05.550Z,8.53
2022-10-26T22:08:32.227Z,10.27
2022-10-26T22:10:58.983Z,10.13
2022-10-26T22:13:25.555Z,11.70
2022-10-26T22:16:09.870Z,9.80
2022-10-26T22:18:37.792Z,12.60
2022-10-26T22:21:05.106Z,9.53
2022-10-26T22:23:36.971Z,9.60
2022-10-26T22:26:10.063Z,9.93
2022-10-26T22:28:41.595Z,11.53
2022-10-26T22:31:14.971Z,10.83
2022-10-26T22:33:42.523Z,10.03
2022-10-26T22:36:11.364Z,9.93
2022-10-26T22:38:38.050Z,11.03
2022-10-26T22:41:05.006Z,18.73
2022-10-26T22:43:31.569Z,14.93
2022-10-26T22:46:10.322Z,11.57
2022-10-26T22:48:37.634Z,12.33
2022-10-26T22:51:25.205Z,12.47
2022-10-26T22:53:53.664Z,13.53
2022-10-26T22:56:20.414Z,12.77
2022-10-26T22:58:46.983Z,11.40
2022-10-26T23:01:16.706Z,13.47
2022-10-26T23:03:43.552Z,12.30
2022-10-26T23:06:12.862Z,14.83
2022-10-26T23:08:39.602Z,12.77
2022-10-26T23:11:08.626Z,15.03
2022-10-26T23:13:35.230Z,14.53
2022-10-26T23:16:06.953Z,15.93
2022-10-26T23:18:34.528Z,13.47
2022-10-26T23:21:01.209Z,16.80
2022-10-26T23:23:27.877Z,15.77
2022-10-26T23:25:54.498Z,15.67
2022-10-26T23:28:21.047Z,15.60
2022-10-26T23:30:47.925Z,15.20
2022-10-26T23:33:14.448Z,16.47
2022-10-26T23:35:41.083Z,15.57
2022-10-26T23:40:40.463Z,14.33
2022-10-26T23:43:06.968Z,14.07
2022-10-26T23:45:33.440Z,17.03
2022-10-26T23:47:59.924Z,15.67
2022-10-26T23:50:26.403Z,15.10
2022-10-26T23:52:52.904Z,20.80
2022-10-26T23:55:19.397Z,15.77
2022-10-26T23:57:45.910Z,14.97
